createdAt,value
2019-03-08T00:02:31.383Z,8.98
2019-03-08T00:05:03.313Z,8.94
2019-03-08T00:07:35.742Z,8.90
2019-03-08T00:10:08.272Z,8.90
2019-03-08T00:12:40.582Z,8.84
2019-03-08T00:15:14.498Z,8.73
2019-03-08T00:17:46.871Z,8.83
2019-03-08T00:20:19.235Z,8.87
2019-03-08T00:22:51.615Z,8.76
2019-03-08T00:25:23.986Z,8.69
2019-03-08T00:27:56.355Z,8.72
2019-03-08T00:30:30.254Z,8.82
2019-03-08T00:33:02.640Z,8.86
2019-03-08T00:35:35.011Z,8.75
2019-03-08T00:38:07.384Z,8.84
2019-03-08T00:40:39.749Z,8.77
2019-03-08T00:43:12.123Z,8.65
2019-03-08T00:45:44.495Z,8.63
2019-03-08T00:48:16.866Z,8.63
2019-03-08T00:50:48.798Z,8.61
2019-03-08T00:53:21.557Z,8.52
2019-03-08T00:55:53.886Z,8.54
2019-03-08T00:58:26.255Z,8.48
2019-03-08T01:00:58.625Z,8.42
2019-03-08T01:03:30.998Z,8.33
2019-03-08T01:06:03.372Z,8.25
2019-03-08T01:08:35.730Z,8.25
2019-03-08T01:11:07.642Z,8.19
2019-03-08T01:13:41.290Z,8.18
2019-03-08T01:16:13.974Z,8.18
2019-03-08T01:18:46.346Z,8.10
2019-03-08T01:21:18.737Z,8.07
2019-03-08T01:23:52.420Z,8.03
2019-03-08T01:26:24.797Z,8.04
2019-03-08T01:28:57.175Z,8.02
2019-03-08T01:31:30.780Z,7.93
2019-03-08T01:34:03.141Z,7.87
2019-03-08T01:36:35.520Z,7.86
2019-03-08T01:39:09.734Z,7.90
2019-03-08T01:41:42.212Z,7.83
2019-03-08T01:44:14.582Z,7.95
2019-03-08T01:46:46.954Z,7.94
2019-03-08T01:49:19.845Z,7.86
2019-03-08T01:51:52.201Z,7.80
2019-03-08T01:54:24.575Z,7.83
2019-03-08T01:56:56.490Z,7.92
2019-03-08T01:59:28.919Z,7.91
2019-03-08T02:02:01.392Z,7.88
2019-03-08T02:04:33.751Z,7.95
2019-03-08T02:07:06.750Z,8.01
2019-03-08T02:09:39.128Z,8.03
2019-03-08T02:12:11.698Z,8.04
2019-03-08T02:14:44.117Z,8.03
2019-03-08T02:17:16.428Z,8.04
2019-03-08T02:19:48.801Z,8.08
2019-03-08T02:22:21.069Z,8.03
2019-03-08T02:24:53.442Z,8.06
2019-03-08T02:27:26.019Z,8.05
2019-03-08T02:29:58.395Z,8.04
2019-03-08T02:32:30.318Z,8.04
2019-03-08T02:35:03.245Z,7.96
2019-03-08T02:37:35.613Z,7.92
2019-03-08T02:40:31.229Z,7.89
2019-03-08T02:43:14.249Z,7.82
2019-03-08T02:45:46.735Z,7.80
2019-03-08T02:48:19.116Z,7.80
2019-03-08T02:50:51.474Z,7.72
2019-03-08T02:53:23.847Z,7.78
2019-03-08T02:55:56.224Z,7.80
2019-03-08T02:58:28.595Z,7.81
2019-03-08T03:01:01.273Z,7.81
2019-03-08T03:03:33.639Z,7.81
2019-03-08T03:06:05.903Z,7.84
2019-03-08T03:08:38.284Z,7.76
2019-03-08T03:11:10.656Z,7.69
2019-03-08T03:13:43.026Z,7.58
2019-03-08T03:16:16.628Z,7.55
2019-03-08T03:18:48.997Z,7.52
2019-03-08T03:21:21.417Z,7.55
2019-03-08T03:23:53.391Z,7.49
2019-03-08T03:26:26.214Z,7.47
2019-03-08T03:28:58.589Z,7.39
2019-03-08T03:31:30.853Z,7.47
2019-03-08T03:34:03.233Z,7.48
2019-03-08T03:36:37.129Z,7.42
2019-03-08T03:39:09.515Z,7.41
2019-03-08T03:41:41.884Z,7.38
2019-03-08T03:44:14.662Z,7.42
2019-03-08T03:46:47.001Z,7.46
2019-03-08T03:49:19.510Z,7.39
2019-03-08T03:51:51.883Z,7.43
2019-03-08T03:54:23.838Z,7.48
2019-03-08T03:56:56.105Z,7.43
2019-03-08T03:59:28.492Z,7.48
2019-03-08T04:02:00.852Z,7.46
2019-03-08T04:04:33.235Z,7.49
2019-03-08T04:07:05.602Z,7.49
2019-03-08T04:09:37.565Z,7.46
2019-03-08T04:12:10.449Z,7.52
2019-03-08T04:14:42.826Z,7.45
2019-03-08T04:17:15.191Z,7.49
2019-03-08T04:19:47.184Z,7.45
2019-03-08T04:22:19.528Z,7.34
2019-03-08T04:24:51.894Z,7.41
2019-03-08T04:27:24.282Z,7.45
2019-03-08T04:29:56.746Z,7.38
2019-03-08T04:32:29.315Z,7.42
2019-03-08T04:35:02.111Z,7.39
2019-03-08T04:37:34.468Z,7.38
2019-03-08T04:40:10.635Z,7.38
2019-03-08T04:42:42.561Z,7.44
2019-03-08T04:45:16.812Z,7.33
2019-03-08T04:47:49.185Z,7.43
2019-03-08T04:50:21.557Z,7.36
2019-03-08T04:52:54.950Z,7.38
2019-03-08T04:55:27.428Z,7.39
2019-03-08T04:57:59.795Z,7.47
2019-03-08T05:00:32.171Z,7.41
2019-03-08T05:03:04.097Z,7.40
2019-03-08T05:05:36.407Z,7.46
2019-03-08T05:08:08.976Z,7.42
2019-03-08T05:10:41.353Z,7.39
2019-03-08T05:13:13.716Z,7.36
2019-03-08T05:15:46.096Z,7.32
2019-03-08T05:18:18.461Z,7.27
2019-03-08T05:20:50.842Z,7.28
2019-03-08T05:23:23.216Z,7.29
2019-03-08T05:25:55.580Z,7.20
2019-03-08T05:28:27.844Z,7.18
2019-03-08T05:31:00.740Z,7.10
2019-03-08T05:33:33.003Z,7.04
2019-03-08T05:36:05.381Z,7.09
2019-03-08T05:38:37.303Z,7.09
2019-03-08T05:41:09.729Z,7.06
2019-03-08T05:43:42.119Z,7.04
2019-03-08T05:46:15.173Z,7.03
2019-03-08T05:48:47.647Z,7.11
2019-03-08T05:51:20.022Z,7.09
2019-03-08T05:53:52.318Z,7.17
2019-03-08T05:56:24.669Z,7.30
2019-03-08T05:58:57.024Z,7.28
2019-03-08T06:01:29.294Z,7.36
2019-03-08T06:04:01.680Z,7.38
2019-03-08T06:06:34.651Z,7.48
2019-03-08T06:09:08.339Z,7.56
2019-03-08T06:11:40.253Z,7.60
2019-03-08T06:14:12.690Z,7.67
2019-03-08T06:16:45.072Z,7.82
2019-03-08T06:19:17.446Z,7.87
2019-03-08T06:21:49.826Z,7.99
2019-03-08T06:24:22.287Z,8.16
2019-03-08T06:26:54.655Z,8.20
2019-03-08T06:29:27.438Z,8.35
2019-03-08T06:31:59.806Z,8.43
2019-03-08T06:34:32.904Z,8.53
2019-03-08T06:37:05.386Z,8.65
2019-03-08T06:39:37.754Z,8.71
2019-03-08T06:42:10.229Z,8.79
2019-03-08T06:44:42.179Z,8.88
2019-03-08T06:47:14.613Z,8.96
2019-03-08T06:49:46.924Z,9.06
2019-03-08T06:52:19.365Z,9.15
2019-03-08T06:54:51.782Z,9.22
2019-03-08T06:57:24.041Z,9.29
2019-03-08T06:59:57.562Z,9.34
2019-03-08T07:02:30.305Z,9.44
2019-03-08T07:05:02.893Z,9.48
2019-03-08T07:07:35.280Z,9.64
2019-03-08T07:10:10.208Z,9.64
2019-03-08T07:12:42.584Z,9.64
2019-03-08T07:15:14.958Z,9.69
2019-03-08T07:17:47.314Z,9.74
2019-03-08T07:20:22.154Z,9.84
2019-03-08T07:23:12.026Z,9.88
2019-03-08T07:26:01.838Z,9.96
2019-03-08T07:28:36.955Z,10.01
2019-03-08T07:31:26.325Z,10.26
2019-03-08T07:34:12.664Z,10.14
2019-03-08T07:36:46.625Z,10.39
2019-03-08T07:39:36.509Z,10.16
2019-03-08T07:42:17.682Z,10.36
2019-03-08T07:44:55.700Z,10.40
2019-03-08T07:47:45.682Z,10.43
2019-03-08T07:50:17.315Z,10.62
2019-03-08T07:53:07.430Z,10.68
2019-03-08T07:55:58.029Z,10.79
2019-03-08T07:58:48.306Z,10.57
2019-03-08T08:01:28.100Z,10.87
2019-03-08T08:04:00.122Z,10.89
2019-03-08T08:06:35.155Z,10.79
2019-03-08T08:09:17.570Z,10.88
2019-03-08T08:11:57.005Z,10.98
2019-03-08T08:14:39.656Z,11.20
2019-03-08T08:17:13.014Z,11.03
2019-03-08T08:19:59.198Z,11.11
2019-03-08T08:22:36.075Z,11.33
2019-03-08T08:25:18.226Z,11.08
2019-03-08T08:27:56.284Z,10.98
2019-03-08T08:30:33.067Z,11.07
2019-03-08T08:33:05.125Z,10.91
2019-03-08T08:35:39.870Z,10.97
2019-03-08T08:38:16.534Z,11.13
2019-03-08T08:40:50.507Z,11.11
2019-03-08T08:43:27.316Z,11.08
2019-03-08T08:46:19.553Z,11.04
2019-03-08T08:49:00.625Z,10.86
2019-03-08T08:51:50.711Z,10.85
2019-03-08T08:54:28.831Z,10.89
2019-03-08T08:57:05.880Z,10.92
2019-03-08T08:59:39.801Z,10.99
2019-03-08T09:02:16.358Z,11.01
2019-03-08T09:05:01.076Z,11.03
2019-03-08T09:07:46.702Z,10.94
2019-03-08T09:10:35.267Z,10.91
2019-03-08T09:13:11.832Z,11.03
2019-03-08T09:15:57.278Z,10.99
2019-03-08T09:18:47.603Z,10.93
2019-03-08T09:21:33.795Z,10.97
2019-03-08T09:24:16.610Z,11.00
2019-03-08T09:26:56.562Z,11.07
2019-03-08T09:29:30.069Z,11.13
2019-03-08T09:32:09.493Z,11.11
2019-03-08T09:34:41.517Z,11.11
2019-03-08T09:37:13.634Z,11.09
2019-03-08T09:39:45.688Z,11.06
2019-03-08T09:42:20.837Z,11.07
2019-03-08T09:44:58.634Z,11.02
2019-03-08T09:47:35.505Z,11.06
2019-03-08T09:50:27.446Z,11.13
2019-03-08T09:53:16.610Z,11.15
2019-03-08T09:55:56.557Z,11.19
2019-03-08T09:58:42.441Z,11.17
2019-03-08T10:01:16.868Z,11.23
2019-03-08T10:03:49.671Z,11.32
2019-03-08T10:06:32.863Z,11.33
2019-03-08T10:09:18.046Z,11.39
2019-03-08T10:11:51.944Z,11.45
2019-03-08T10:14:28.928Z,11.52
2019-03-08T10:17:08.649Z,11.62
2019-03-08T10:19:45.355Z,11.64
2019-03-08T10:22:35.222Z,11.61
2019-03-08T10:25:26.343Z,11.65
2019-03-08T10:27:57.972Z,11.66
2019-03-08T10:30:43.899Z,11.59
2019-03-08T10:33:32.853Z,11.54
2019-03-08T10:36:04.904Z,11.41
2019-03-08T10:38:38.819Z,11.35
2019-03-08T10:41:15.488Z,11.28
2019-03-08T10:43:52.373Z,11.16
2019-03-08T10:46:31.771Z,11.08
2019-03-08T10:49:11.859Z,11.09
2019-03-08T10:51:45.869Z,11.10
2019-03-08T10:54:31.662Z,11.11
2019-03-08T10:57:08.528Z,11.12
2019-03-08T10:59:42.492Z,11.22
2019-03-08T11:02:31.715Z,11.31
2019-03-08T11:05:05.587Z,11.36
2019-03-08T11:07:44.467Z,11.32
2019-03-08T11:10:30.221Z,11.45
2019-03-08T11:13:13.458Z,11.45
2019-03-08T11:15:59.553Z,11.57
2019-03-08T11:18:49.536Z,11.58
2019-03-08T11:21:38.496Z,11.68
2019-03-08T11:24:22.851Z,11.73
2019-03-08T11:27:12.415Z,11.79
2019-03-08T11:29:58.520Z,11.83
2019-03-08T11:32:33.247Z,11.68
2019-03-08T11:35:12.366Z,11.92
2019-03-08T11:37:46.282Z,12.03
2019-03-08T11:40:35.132Z,12.13
2019-03-08T11:43:17.656Z,12.05
2019-03-08T11:46:07.935Z,11.96
2019-03-08T11:48:44.819Z,12.17
2019-03-08T11:51:32.042Z,12.47
2019-03-08T11:54:15.369Z,12.51
2019-03-08T11:56:55.870Z,12.24
2019-03-08T11:59:22.985Z,12.22
2019-03-08T12:02:08.551Z,13.07
2019-03-08T12:04:42.468Z,12.94
2019-03-08T12:07:16.367Z,12.57
2019-03-08T12:10:06.775Z,12.45
2019-03-08T12:12:40.681Z,12.39
2019-03-08T12:15:16.422Z,12.18
2019-03-08T12:17:48.385Z,12.28
2019-03-08T12:20:28.539Z,12.30
2019-03-08T12:23:17.092Z,12.43
2019-03-08T12:25:53.864Z,12.16
2019-03-08T12:28:25.945Z,12.15
2019-03-08T12:31:04.039Z,11.95
2019-03-08T12:33:54.126Z,11.69
2019-03-08T12:36:36.844Z,11.59
2019-03-08T12:39:19.256Z,11.48
2019-03-08T12:41:53.153Z,11.39
2019-03-08T12:44:29.480Z,11.33
2019-03-08T12:47:15.226Z,11.24
2019-03-08T12:50:04.691Z,10.13
2019-03-08T12:52:55.004Z,9.27
2019-03-08T12:55:31.640Z,9.36
2019-03-08T12:58:19.073Z,9.36
2019-03-08T13:00:55.840Z,9.59
2019-03-08T13:03:45.827Z,10.16
2019-03-08T13:06:19.733Z,10.45
2019-03-08T13:09:02.224Z,10.08
2019-03-08T13:11:36.060Z,9.95
2019-03-08T13:14:08.451Z,9.82
2019-03-08T13:16:40.806Z,9.89
2019-03-08T13:19:13.163Z,9.89
2019-03-08T13:21:45.531Z,9.91
2019-03-08T13:24:17.918Z,9.95
2019-03-08T13:26:50.178Z,9.96
2019-03-08T13:29:22.565Z,10.03
2019-03-08T13:31:54.937Z,10.05
2019-03-08T13:34:27.293Z,10.06
2019-03-08T13:37:00.179Z,10.11
2019-03-08T13:39:32.571Z,10.07
2019-03-08T13:42:04.934Z,10.02
2019-03-08T13:44:37.402Z,9.97
2019-03-08T13:47:09.975Z,9.85
2019-03-08T13:49:42.361Z,9.54
2019-03-08T13:52:14.618Z,9.14
2019-03-08T13:54:47.205Z,8.68
2019-03-08T13:57:19.462Z,8.38
2019-03-08T13:59:51.833Z,8.29
2019-03-08T14:02:23.770Z,8.25
2019-03-08T14:04:55.756Z,8.23
2019-03-08T14:07:28.862Z,8.23
2019-03-08T14:10:01.256Z,8.26
2019-03-08T14:12:33.277Z,8.31
2019-03-08T14:15:08.834Z,8.38
2019-03-08T14:17:41.209Z,8.41
2019-03-08T14:20:26.488Z,8.44
2019-03-08T14:22:59.121Z,8.48
2019-03-08T14:25:31.536Z,8.54
2019-03-08T14:28:03.900Z,8.59
2019-03-08T14:30:47.025Z,8.63
2019-03-08T14:33:19.158Z,8.65
2019-03-08T14:35:51.562Z,8.72
2019-03-08T14:38:23.940Z,8.76
2019-03-08T14:41:04.601Z,8.77
2019-03-08T14:43:52.492Z,8.76
2019-03-08T14:46:27.168Z,8.68
2019-03-08T14:48:59.962Z,8.40
2019-03-08T14:51:32.329Z,7.67
2019-03-08T14:54:06.049Z,7.48
2019-03-08T14:56:38.706Z,7.38
2019-03-08T14:59:14.908Z,7.34
2019-03-08T15:01:45.088Z,7.35
2019-03-08T15:04:17.103Z,7.36
2019-03-08T15:06:49.421Z,7.42
2019-03-08T15:09:21.789Z,7.46
2019-03-08T15:11:55.957Z,7.44
2019-03-08T15:14:30.242Z,7.55
2019-03-08T15:17:08.950Z,7.54
2019-03-08T15:19:39.805Z,7.57
2019-03-08T15:22:10.096Z,7.59
2019-03-08T15:24:42.474Z,7.61
2019-03-08T15:27:14.942Z,7.68
2019-03-08T15:29:54.206Z,7.76
2019-03-08T15:32:20.814Z,7.80
2019-03-08T15:34:53.249Z,7.92
2019-03-08T15:37:25.667Z,7.91
2019-03-08T15:39:59.159Z,7.94
2019-03-08T15:42:31.542Z,7.97
2019-03-08T15:45:05.791Z,7.99
2019-03-08T15:47:38.323Z,8.03
2019-03-08T15:50:20.110Z,8.07
2019-03-08T15:52:52.489Z,8.08
2019-03-08T15:55:24.858Z,8.04
2019-03-08T15:57:57.241Z,8.07
2019-03-08T16:00:29.608Z,8.06
2019-03-08T16:03:02.083Z,8.12
2019-03-08T16:05:34.459Z,8.12
2019-03-08T16:08:06.820Z,8.11
2019-03-08T16:10:39.250Z,8.11
2019-03-08T16:13:11.662Z,8.17
2019-03-08T16:15:44.035Z,8.20
2019-03-08T16:18:17.927Z,8.20
2019-03-08T16:20:50.521Z,8.26
2019-03-08T16:23:22.902Z,8.23
2019-03-08T16:25:55.273Z,8.26
2019-03-08T16:28:27.650Z,8.21
2019-03-08T16:31:03.720Z,8.21
2019-03-08T16:33:40.330Z,8.23
2019-03-08T16:36:29.055Z,8.22
2019-03-08T16:39:12.705Z,8.22
2019-03-08T16:41:49.133Z,8.14
2019-03-08T16:44:40.854Z,8.10
2019-03-08T16:47:31.054Z,8.06
2019-03-08T16:50:15.094Z,8.00
2019-03-08T16:53:02.113Z,8.02
2019-03-08T16:55:35.370Z,7.95
2019-03-08T16:58:18.189Z,7.87
2019-03-08T17:01:07.177Z,7.79
2019-03-08T17:03:57.070Z,7.73
2019-03-08T17:06:46.840Z,7.62
2019-03-08T17:09:23.525Z,7.54
2019-03-08T17:11:57.444Z,7.51
2019-03-08T17:14:47.311Z,7.46
2019-03-08T17:17:32.167Z,7.36
2019-03-08T17:20:16.923Z,7.31
2019-03-08T17:23:06.980Z,7.33
2019-03-08T17:25:56.704Z,7.28
2019-03-08T17:28:33.379Z,7.24
2019-03-08T17:31:07.376Z,7.12
2019-03-08T17:33:51.643Z,7.06
2019-03-08T17:36:34.751Z,7.08
2019-03-08T17:39:20.650Z,7.04
2019-03-08T17:42:03.467Z,6.97
2019-03-08T17:44:35.943Z,6.90
2019-03-08T17:47:21.364Z,6.88
2019-03-08T17:50:01.461Z,6.84
2019-03-08T17:52:46.947Z,6.81
2019-03-08T17:55:20.956Z,6.77
2019-03-08T17:58:10.534Z,6.79
2019-03-08T18:00:59.495Z,6.81
2019-03-08T18:03:35.864Z,6.77
2019-03-08T18:06:12.360Z,6.73
2019-03-08T18:08:46.239Z,6.70
2019-03-08T18:11:18.513Z,6.65
2019-03-08T18:13:58.039Z,6.56
2019-03-08T18:16:48.128Z,6.51
2019-03-08T18:19:27.871Z,6.49
2019-03-08T18:21:59.943Z,6.46
2019-03-08T18:24:52.304Z,6.46
2019-03-08T18:27:29.682Z,6.42
2019-03-08T18:30:06.876Z,6.41
2019-03-08T18:32:40.058Z,6.43
2019-03-08T18:35:18.055Z,6.34
2019-03-08T18:37:49.820Z,6.41
2019-03-08T18:40:29.955Z,6.35
2019-03-08T18:43:03.917Z,6.33
2019-03-08T18:45:41.158Z,6.31
2019-03-08T18:48:31.546Z,6.30
2019-03-08T18:51:18.363Z,6.22
2019-03-08T18:54:10.090Z,6.16
2019-03-08T18:57:02.011Z,6.10
2019-03-08T18:59:34.085Z,5.97
2019-03-08T19:02:08.908Z,5.96
2019-03-08T19:04:42.790Z,5.90
2019-03-08T19:07:16.722Z,5.80
2019-03-08T19:10:07.118Z,5.80
2019-03-08T19:12:44.103Z,5.68
2019-03-08T19:15:27.938Z,5.63
2019-03-08T19:18:18.333Z,5.55
2019-03-08T19:21:06.892Z,5.49
2019-03-08T19:23:46.153Z,5.43
2019-03-08T19:26:25.871Z,5.38
2019-03-08T19:28:59.769Z,5.35
2019-03-08T19:31:36.658Z,5.28
2019-03-08T19:34:08.720Z,5.31
2019-03-08T19:36:43.760Z,5.43
2019-03-08T19:39:17.668Z,5.37
2019-03-08T19:41:52.584Z,5.33
2019-03-08T19:44:26.606Z,5.27
2019-03-08T19:47:09.409Z,5.18
2019-03-08T19:49:45.408Z,5.16
2019-03-08T19:52:20.508Z,5.09
2019-03-08T19:54:54.418Z,5.06
2019-03-08T19:57:37.181Z,5.00
2019-03-08T20:00:33.676Z,4.98
2019-03-08T20:03:07.675Z,5.04
2019-03-08T20:05:56.431Z,4.98
2019-03-08T20:08:39.058Z,4.94
2019-03-08T20:11:15.622Z,4.85
2019-03-08T20:14:04.474Z,4.78
2019-03-08T20:16:44.115Z,4.79
2019-03-08T20:19:18.148Z,4.72
2019-03-08T20:21:52.348Z,4.65
2019-03-08T20:24:33.746Z,4.67
2019-03-08T20:27:07.839Z,4.68
2019-03-08T20:29:41.846Z,4.65
2019-03-08T20:32:30.092Z,4.65
2019-03-08T20:35:02.163Z,4.61
2019-03-08T20:37:40.570Z,4.56
2019-03-08T20:40:15.603Z,4.54
2019-03-08T20:42:52.388Z,4.52
2019-03-08T20:45:26.700Z,4.46
2019-03-08T20:47:59.072Z,4.41
2019-03-08T20:50:31.156Z,4.38
2019-03-08T20:53:03.513Z,4.37
2019-03-08T20:55:35.504Z,4.33
2019-03-08T20:58:07.435Z,4.28
2019-03-08T21:00:39.418Z,4.27
2019-03-08T21:03:11.763Z,4.25
2019-03-08T21:05:44.133Z,4.22
2019-03-08T21:08:16.726Z,4.11
2019-03-08T21:10:49.093Z,4.10
2019-03-08T21:13:22.893Z,4.03
2019-03-08T21:15:56.707Z,4.02
2019-03-08T21:18:29.379Z,3.95
2019-03-08T21:21:02.056Z,3.92
2019-03-08T21:23:33.976Z,3.87
2019-03-08T21:26:06.393Z,3.88
2019-03-08T21:28:38.774Z,3.82
2019-03-08T21:31:11.132Z,3.80
2019-03-08T21:33:43.062Z,3.90
2019-03-08T21:36:15.468Z,3.90
2019-03-08T21:38:50.810Z,3.86
2019-03-08T21:41:23.176Z,3.89
2019-03-08T21:43:55.568Z,3.94
2019-03-08T21:46:27.926Z,3.98
2019-03-08T21:48:59.845Z,3.95
2019-03-08T21:51:33.125Z,3.93
2019-03-08T21:54:05.446Z,3.95
2019-03-08T21:56:37.818Z,3.98
2019-03-08T21:59:11.433Z,3.96
2019-03-08T22:01:43.802Z,3.92
2019-03-08T22:04:17.705Z,3.91
2019-03-08T22:06:50.141Z,3.89
2019-03-08T22:09:39.595Z,3.88
2019-03-08T22:12:12.021Z,3.88
2019-03-08T22:14:43.955Z,3.82
2019-03-08T22:17:16.376Z,3.91
2019-03-08T22:19:49.039Z,3.96
2019-03-08T22:22:21.421Z,3.98
2019-03-08T22:24:53.957Z,3.99
2019-03-08T22:27:27.902Z,4.04
2019-03-08T22:30:00.678Z,4.07
2019-03-08T22:32:34.168Z,4.08
2019-03-08T22:35:07.315Z,4.09
2019-03-08T22:37:39.730Z,4.07
2019-03-08T22:40:13.843Z,4.11
2019-03-08T22:42:46.549Z,4.23
2019-03-08T22:45:18.790Z,4.22
2019-03-08T22:47:51.173Z,4.17
2019-03-08T22:50:23.847Z,4.17
2019-03-08T22:52:56.226Z,4.15
2019-03-08T22:55:28.485Z,4.09
2019-03-08T22:58:00.860Z,4.01
2019-03-08T23:00:54.836Z,3.95
2019-03-08T23:03:29.656Z,3.98
2019-03-08T23:06:03.266Z,3.97
2019-03-08T23:08:36.055Z,3.90
2019-03-08T23:11:08.419Z,3.98
2019-03-08T23:13:40.793Z,3.97
2019-03-08T23:16:13.276Z,3.96
2019-03-08T23:18:45.846Z,3.92
2019-03-08T23:21:18.223Z,3.88
2019-03-08T23:23:50.707Z,3.88
2019-03-08T23:26:23.076Z,3.87
2019-03-08T23:29:10.280Z,3.85
2019-03-08T23:31:47.166Z,3.80
2019-03-08T23:34:19.543Z,3.75
2019-03-08T23:36:52.113Z,3.76
2019-03-08T23:39:24.474Z,3.67
2019-03-08T23:41:56.853Z,3.66
2019-03-08T23:44:29.231Z,3.71
2019-03-08T23:47:05.074Z,3.69
2019-03-08T23:49:38.980Z,3.63
2019-03-08T23:52:11.363Z,3.59
2019-03-08T23:54:43.727Z,3.62
2019-03-08T23:57:16.612Z,3.66
2019-03-08T23:59:48.991Z,3.66
